sensor_id;sensor_type;location;lat;lon;timestamp;P1;durP1;ratioP1;P2;durP2;ratioP2
23632;SDS011;11993;48.748;9.166;2024-03-06T00:02:18;6.43;;;2.53;;
23632;SDS011;11993;48.748;9.166;2024-03-06T00:04:43;3.30;;;2.08;;
23632;SDS011;11993;48.748;9.166;2024-03-06T00:07:09;5.43;;;2.15;;
23632;SDS011;11993;48.748;9.166;2024-03-06T00:09:35;3.13;;;1.67;;
23632;SDS011;11993;48.748;9.166;2024-03-06T00:12:01;3.80;;;1.90;;
23632;SDS011;11993;48.748;9.166;2024-03-06T00:14:27;5.10;;;2.22;;
23632;SDS011;11993;48.748;9.166;2024-03-06T00:16:53;5.35;;;2.22;;
23632;SDS011;11993;48.748;9.166;2024-03-06T00:19:20;4.28;;;2.00;;
23632;SDS011;11993;48.748;9.166;2024-03-06T00:21:47;3.90;;;1.77;;
23632;SDS011;11993;48.748;9.166;2024-03-06T00:24:15;3.67;;;1.92;;
23632;SDS011;11993;48.748;9.166;2024-03-06T00:26:41;7.63;;;2.60;;
23632;SDS011;11993;48.748;9.166;2024-03-06T00:29:09;15.88;;;8.93;;
23632;SDS011;11993;48.748;9.166;2024-03-06T00:31:35;61.28;;;31.98;;
23632;SDS011;11993;48.748;9.166;2024-03-06T00:34:00;9.35;;;4.13;;
23632;SDS011;11993;48.748;9.166;2024-03-06T00:36:26;7.03;;;2.30;;
23632;SDS011;11993;48.748;9.166;2024-03-06T00:38:52;6.57;;;2.30;;
23632;SDS011;11993;48.748;9.166;2024-03-06T00:41:18;5.65;;;2.10;;
23632;SDS011;11993;48.748;9.166;2024-03-06T00:43:44;4.43;;;2.17;;
23632;SDS011;11993;48.748;9.166;2024-03-06T00:46:10;3.88;;;1.98;;
23632;SDS011;11993;48.748;9.166;2024-03-06T00:48:35;3.63;;;2.00;;
23632;SDS011;11993;48.748;9.166;2024-03-06T00:51:02;4.05;;;2.25;;
23632;SDS011;11993;48.748;9.166;2024-03-06T00:53:28;5.18;;;1.98;;
23632;SDS011;11993;48.748;9.166;2024-03-06T00:55:53;2.88;;;1.92;;
23632;SDS011;11993;48.748;9.166;2024-03-06T00:58:19;5.68;;;2.10;;
23632;SDS011;11993;48.748;9.166;2024-03-06T01:00:44;5.43;;;2.42;;
23632;SDS011;11993;48.748;9.166;2024-03-06T01:03:10;4.60;;;2.10;;
23632;SDS011;11993;48.748;9.166;2024-03-06T01:05:36;3.55;;;2.10;;
23632;SDS011;11993;48.748;9.166;2024-03-06T01:08:01;4.13;;;2.20;;
23632;SDS011;11993;48.748;9.166;2024-03-06T01:10:27;4.07;;;1.95;;
23632;SDS011;11993;48.748;9.166;2024-03-06T01:12:53;4.50;;;2.08;;
23632;SDS011;11993;48.748;9.166;2024-03-06T01:15:18;6.53;;;2.08;;
23632;SDS011;11993;48.748;9.166;2024-03-06T01:17:44;4.43;;;2.10;;
23632;SDS011;11993;48.748;9.166;2024-03-06T01:20:10;3.80;;;2.05;;
23632;SDS011;11993;48.748;9.166;2024-03-06T01:22:35;7.10;;;2.42;;
23632;SDS011;11993;48.748;9.166;2024-03-06T01:25:01;3.58;;;1.92;;
23632;SDS011;11993;48.748;9.166;2024-03-06T01:27:27;4.80;;;2.10;;
23632;SDS011;11993;48.748;9.166;2024-03-06T01:29:52;4.55;;;2.22;;
23632;SDS011;11993;48.748;9.166;2024-03-06T01:32:18;3.92;;;1.88;;
23632;SDS011;11993;48.748;9.166;2024-03-06T01:34:43;5.20;;;2.17;;
23632;SDS011;11993;48.748;9.166;2024-03-06T01:37:09;4.35;;;2.30;;
23632;SDS011;11993;48.748;9.166;2024-03-06T01:39:35;5.45;;;2.78;;
23632;SDS011;11993;48.748;9.166;2024-03-06T01:42:01;4.13;;;2.60;;
23632;SDS011;11993;48.748;9.166;2024-03-06T01:44:27;3.80;;;2.13;;
23632;SDS011;11993;48.748;9.166;2024-03-06T01:46:53;7.00;;;2.33;;
23632;SDS011;11993;48.748;9.166;2024-03-06T01:49:19;4.53;;;2.10;;
23632;SDS011;11993;48.748;9.166;2024-03-06T01:51:48;3.58;;;2.35;;
23632;SDS011;11993;48.748;9.166;2024-03-06T01:54:15;5.25;;;2.38;;
23632;SDS011;11993;48.748;9.166;2024-03-06T01:56:44;5.60;;;2.50;;
23632;SDS011;11993;48.748;9.166;2024-03-06T01:59:15;4.57;;;2.08;;
23632;SDS011;11993;48.748;9.166;2024-03-06T02:01:44;4.50;;;2.40;;
23632;SDS011;11993;48.748;9.166;2024-03-06T02:04:11;3.53;;;2.25;;
23632;SDS011;11993;48.748;9.166;2024-03-06T02:06:40;6.53;;;2.60;;
23632;SDS011;11993;48.748;9.166;2024-03-06T02:09:06;5.07;;;2.65;;
23632;SDS011;11993;48.748;9.166;2024-03-06T02:11:32;4.32;;;2.20;;
23632;SDS011;11993;48.748;9.166;2024-03-06T02:13:58;6.07;;;2.40;;
23632;SDS011;11993;48.748;9.166;2024-03-06T02:16:24;6.00;;;2.63;;
23632;SDS011;11993;48.748;9.166;2024-03-06T02:18:53;4.40;;;2.70;;
23632;SDS011;11993;48.748;9.166;2024-03-06T02:21:20;4.88;;;2.70;;
23632;SDS011;11993;48.748;9.166;2024-03-06T02:23:46;4.50;;;2.50;;
23632;SDS011;11993;48.748;9.166;2024-03-06T02:26:12;4.43;;;2.78;;
23632;SDS011;11993;48.748;9.166;2024-03-06T02:28:38;6.60;;;2.40;;
23632;SDS011;11993;48.748;9.166;2024-03-06T02:31:03;6.78;;;2.30;;
23632;SDS011;11993;48.748;9.166;2024-03-06T02:33:31;5.43;;;3.00;;
23632;SDS011;11993;48.748;9.166;2024-03-06T02:35:59;6.20;;;2.33;;
23632;SDS011;11993;48.748;9.166;2024-03-06T02:38:24;4.40;;;2.70;;
23632;SDS011;11993;48.748;9.166;2024-03-06T02:40:50;6.80;;;2.50;;
23632;SDS011;11993;48.748;9.166;2024-03-06T02:43:15;4.75;;;2.17;;
23632;SDS011;11993;48.748;9.166;2024-03-06T02:45:41;5.82;;;2.30;;
23632;SDS011;11993;48.748;9.166;2024-03-06T02:48:07;7.00;;;2.38;;
23632;SDS011;11993;48.748;9.166;2024-03-06T02:50:33;4.35;;;2.65;;
23632;SDS011;11993;48.748;9.166;2024-03-06T02:52:58;4.57;;;2.60;;
23632;SDS011;11993;48.748;9.166;2024-03-06T02:55:24;4.55;;;2.20;;
23632;SDS011;11993;48.748;9.166;2024-03-06T02:57:49;7.15;;;2.92;;
23632;SDS011;11993;48.748;9.166;2024-03-06T03:00:15;5.30;;;2.92;;
23632;SDS011;11993;48.748;9.166;2024-03-06T03:02:41;5.35;;;2.70;;
23632;SDS011;11993;48.748;9.166;2024-03-06T03:05:07;8.23;;;3.38;;
23632;SDS011;11993;48.748;9.166;2024-03-06T03:07:33;6.47;;;3.30;;
23632;SDS011;11993;48.748;9.166;2024-03-06T03:09:59;6.20;;;3.30;;
23632;SDS011;11993;48.748;9.166;2024-03-06T03:12:24;5.35;;;3.17;;
23632;SDS011;11993;48.748;9.166;2024-03-06T03:14:50;5.20;;;2.92;;
23632;SDS011;11993;48.748;9.166;2024-03-06T03:17:16;8.20;;;4.22;;
23632;SDS011;11993;48.748;9.166;2024-03-06T03:19:44;5.88;;;3.92;;
23632;SDS011;11993;48.748;9.166;2024-03-06T03:22:10;7.90;;;4.10;;
23632;SDS011;11993;48.748;9.166;2024-03-06T03:24:35;5.07;;;3.40;;
23632;SDS011;11993;48.748;9.166;2024-03-06T03:27:02;10.88;;;4.22;;
23632;SDS011;11993;48.748;9.166;2024-03-06T03:29:27;7.00;;;4.32;;
23632;SDS011;11993;48.748;9.166;2024-03-06T03:31:54;8.45;;;4.22;;
23632;SDS011;11993;48.748;9.166;2024-03-06T03:34:20;6.85;;;4.03;;
23632;SDS011;11993;48.748;9.166;2024-03-06T03:36:46;5.53;;;3.75;;
23632;SDS011;11993;48.748;9.166;2024-03-06T03:39:12;7.88;;;4.60;;
23632;SDS011;11993;48.748;9.166;2024-03-06T03:41:45;9.85;;;4.95;;
23632;SDS011;11993;48.748;9.166;2024-03-06T03:44:14;8.48;;;3.70;;
23632;SDS011;11993;48.748;9.166;2024-03-06T03:46:41;6.93;;;3.60;;
23632;SDS011;11993;48.748;9.166;2024-03-06T03:49:07;7.18;;;4.10;;
23632;SDS011;11993;48.748;9.166;2024-03-06T03:51:34;5.40;;;3.35;;
23632;SDS011;11993;48.748;9.166;2024-03-06T03:54:00;7.07;;;3.72;;
23632;SDS011;11993;48.748;9.166;2024-03-06T03:56:25;8.18;;;3.42;;
23632;SDS011;11993;48.748;9.166;2024-03-06T03:58:51;5.45;;;2.88;;
23632;SDS011;11993;48.748;9.166;2024-03-06T04:01:16;4.90;;;3.05;;
23632;SDS011;11993;48.748;9.166;2024-03-06T04:03:42;6.82;;;3.58;;
23632;SDS011;11993;48.748;9.166;2024-03-06T04:06:09;5.35;;;3.00;;
23632;SDS011;11993;48.748;9.166;2024-03-06T04:08:35;9.55;;;3.97;;
23632;SDS011;11993;48.748;9.166;2024-03-06T04:11:02;7.75;;;3.67;;
23632;SDS011;11993;48.748;9.166;2024-03-06T04:13:30;7.13;;;3.42;;
23632;SDS011;11993;48.748;9.166;2024-03-06T04:16:01;6.18;;;3.33;;
23632;SDS011;11993;48.748;9.166;2024-03-06T04:18:27;8.68;;;3.25;;
23632;SDS011;11993;48.748;9.166;2024-03-06T04:20:54;5.95;;;3.60;;
23632;SDS011;11993;48.748;9.166;2024-03-06T04:23:19;6.63;;;3.75;;
23632;SDS011;11993;48.748;9.166;2024-03-06T04:25:45;8.10;;;3.80;;
23632;SDS011;11993;48.748;9.166;2024-03-06T04:28:11;7.80;;;4.38;;
23632;SDS011;11993;48.748;9.166;2024-03-06T04:30:36;5.95;;;3.88;;
23632;SDS011;11993;48.748;9.166;2024-03-06T04:33:02;10.73;;;4.07;;
23632;SDS011;11993;48.748;9.166;2024-03-06T04:35:28;6.50;;;3.65;;
23632;SDS011;11993;48.748;9.166;2024-03-06T04:37:53;6.72;;;3.97;;
23632;SDS011;11993;48.748;9.166;2024-03-06T04:40:19;6.00;;;3.72;;
23632;SDS011;11993;48.748;9.166;2024-03-06T04:42:47;6.63;;;3.40;;
23632;SDS011;11993;48.748;9.166;2024-03-06T04:45:14;8.45;;;3.83;;
23632;SDS011;11993;48.748;9.166;2024-03-06T04:47:41;9.65;;;4.15;;
23632;SDS011;11993;48.748;9.166;2024-03-06T04:50:10;7.28;;;3.65;;
23632;SDS011;11993;48.748;9.166;2024-03-06T04:52:37;7.60;;;3.67;;
23632;SDS011;11993;48.748;9.166;2024-03-06T04:55:03;7.93;;;3.95;;
23632;SDS011;11993;48.748;9.166;2024-03-06T04:57:29;6.68;;;4.20;;
23632;SDS011;11993;48.748;9.166;2024-03-06T04:59:55;9.13;;;4.45;;
23632;SDS011;11993;48.748;9.166;2024-03-06T05:02:21;8.45;;;4.15;;
23632;SDS011;11993;48.748;9.166;2024-03-06T05:04:46;7.13;;;4.10;;
23632;SDS011;11993;48.748;9.166;2024-03-06T05:07:12;11.15;;;4.90;;
23632;SDS011;11993;48.748;9.166;2024-03-06T05:09:38;11.30;;;4.97;;
23632;SDS011;11993;48.748;9.166;2024-03-06T05:12:05;9.00;;;4.43;;
23632;SDS011;11993;48.748;9.166;2024-03-06T05:14:31;5.80;;;3.97;;
23632;SDS011;11993;48.748;9.166;2024-03-06T05:16:57;10.43;;;4.43;;
23632;SDS011;11993;48.748;9.166;2024-03-06T05:19:22;6.93;;;4.10;;
23632;SDS011;11993;48.748;9.166;2024-03-06T05:21:48;6.00;;;3.85;;
23632;SDS011;11993;48.748;9.166;2024-03-06T05:24:13;9.10;;;4.70;;
23632;SDS011;11993;48.748;9.166;2024-03-06T05:26:39;9.20;;;4.20;;
23632;SDS011;11993;48.748;9.166;2024-03-06T05:29:04;9.32;;;4.35;;
23632;SDS011;11993;48.748;9.166;2024-03-06T05:31:30;8.20;;;4.43;;
23632;SDS011;11993;48.748;9.166;2024-03-06T05:33:57;9.32;;;4.70;;
23632;SDS011;11993;48.748;9.166;2024-03-06T05:36:22;7.50;;;4.10;;
23632;SDS011;11993;48.748;9.166;2024-03-06T05:38:48;7.50;;;4.93;;
23632;SDS011;11993;48.748;9.166;2024-03-06T05:41:14;9.32;;;4.80;;
23632;SDS011;11993;48.748;9.166;2024-03-06T05:43:42;7.22;;;4.28;;
23632;SDS011;11993;48.748;9.166;2024-03-06T05:46:08;11.38;;;4.50;;
23632;SDS011;11993;48.748;9.166;2024-03-06T05:48:34;10.52;;;4.75;;
23632;SDS011;11993;48.748;9.166;2024-03-06T05:50:59;8.20;;;3.83;;
23632;SDS011;11993;48.748;9.166;2024-03-06T05:53:25;7.93;;;4.25;;
23632;SDS011;11993;48.748;9.166;2024-03-06T05:55:50;7.07;;;3.90;;
23632;SDS011;11993;48.748;9.166;2024-03-06T05:58:16;12.50;;;4.50;;
23632;SDS011;11993;48.748;9.166;2024-03-06T06:00:42;11.88;;;5.18;;
23632;SDS011;11993;48.748;9.166;2024-03-06T06:03:08;9.13;;;4.47;;
23632;SDS011;11993;48.748;9.166;2024-03-06T06:05:36;7.35;;;5.00;;
23632;SDS011;11993;48.748;9.166;2024-03-06T06:08:04;7.65;;;4.05;;
23632;SDS011;11993;48.748;9.166;2024-03-06T06:10:30;9.05;;;5.13;;
23632;SDS011;11993;48.748;9.166;2024-03-06T06:12:55;8.23;;;5.53;;
23632;SDS011;11993;48.748;9.166;2024-03-06T06:15:21;35.58;;;20.13;;
23632;SDS011;11993;48.748;9.166;2024-03-06T06:17:47;7.32;;;4.82;;
23632;SDS011;11993;48.748;9.166;2024-03-06T06:20:13;7.38;;;4.90;;
23632;SDS011;11993;48.748;9.166;2024-03-06T06:22:40;10.23;;;4.43;;
23632;SDS011;11993;48.748;9.166;2024-03-06T06:25:06;8.70;;;5.13;;
23632;SDS011;11993;48.748;9.166;2024-03-06T06:27:32;19.02;;;5.43;;
23632;SDS011;11993;48.748;9.166;2024-03-06T06:29:58;9.85;;;5.38;;
23632;SDS011;11993;48.748;9.166;2024-03-06T06:32:24;8.88;;;4.95;;
23632;SDS011;11993;48.748;9.166;2024-03-06T06:34:49;7.72;;;4.80;;
23632;SDS011;11993;48.748;9.166;2024-03-06T06:37:16;5.35;;;4.10;;
23632;SDS011;11993;48.748;9.166;2024-03-06T06:39:44;9.25;;;5.22;;
23632;SDS011;11993;48.748;9.166;2024-03-06T06:42:10;7.35;;;4.75;;
23632;SDS011;11993;48.748;9.166;2024-03-06T06:44:35;11.20;;;4.93;;
23632;SDS011;11993;48.748;9.166;2024-03-06T06:47:02;8.32;;;4.82;;
23632;SDS011;11993;48.748;9.166;2024-03-06T06:49:27;13.68;;;5.35;;
23632;SDS011;11993;48.748;9.166;2024-03-06T06:51:53;22.13;;;10.68;;
23632;SDS011;11993;48.748;9.166;2024-03-06T06:54:19;18.17;;;10.57;;
23632;SDS011;11993;48.748;9.166;2024-03-06T06:56:44;12.10;;;5.95;;
23632;SDS011;11993;48.748;9.166;2024-03-06T06:59:10;8.95;;;5.85;;
23632;SDS011;11993;48.748;9.166;2024-03-06T07:01:36;11.95;;;5.50;;
23632;SDS011;11993;48.748;9.166;2024-03-06T07:04:01;12.30;;;5.95;;
23632;SDS011;11993;48.748;9.166;2024-03-06T07:06:27;10.73;;;4.97;;
23632;SDS011;11993;48.748;9.166;2024-03-06T07:08:52;6.43;;;4.65;;
23632;SDS011;11993;48.748;9.166;2024-03-06T07:11:18;15.48;;;6.40;;
23632;SDS011;11993;48.748;9.166;2024-03-06T07:13:45;9.57;;;5.40;;
23632;SDS011;11993;48.748;9.166;2024-03-06T07:16:11;14.85;;;6.13;;
23632;SDS011;11993;48.748;9.166;2024-03-06T07:18:36;7.93;;;4.63;;
23632;SDS011;11993;48.748;9.166;2024-03-06T07:21:02;9.05;;;5.47;;
23632;SDS011;11993;48.748;9.166;2024-03-06T07:23:28;9.70;;;5.93;;
23632;SDS011;11993;48.748;9.166;2024-03-06T07:25:53;15.40;;;5.90;;
23632;SDS011;11993;48.748;9.166;2024-03-06T07:28:19;9.38;;;5.75;;
23632;SDS011;11993;48.748;9.166;2024-03-06T07:30:46;7.97;;;5.70;;
23632;SDS011;11993;48.748;9.166;2024-03-06T07:33:12;8.90;;;5.63;;
23632;SDS011;11993;48.748;9.166;2024-03-06T07:35:38;12.90;;;6.50;;
23632;SDS011;11993;48.748;9.166;2024-03-06T07:38:04;11.55;;;5.82;;
23632;SDS011;11993;48.748;9.166;2024-03-06T07:40:30;10.02;;;5.55;;
23632;SDS011;11993;48.748;9.166;2024-03-06T07:42:59;15.80;;;6.28;;
23632;SDS011;11993;48.748;9.166;2024-03-06T07:45:25;13.25;;;6.35;;
23632;SDS011;11993;48.748;9.166;2024-03-06T07:47:51;11.25;;;6.43;;
23632;SDS011;11993;48.748;9.166;2024-03-06T07:50:17;9.05;;;5.63;;
23632;SDS011;11993;48.748;9.166;2024-03-06T07:52:45;15.30;;;6.35;;
23632;SDS011;11993;48.748;9.166;2024-03-06T07:55:11;12.85;;;6.35;;
23632;SDS011;11993;48.748;9.166;2024-03-06T07:57:37;12.50;;;6.75;;
23632;SDS011;11993;48.748;9.166;2024-03-06T08:00:03;16.05;;;7.65;;
23632;SDS011;11993;48.748;9.166;2024-03-06T08:02:42;15.25;;;8.57;;
23632;SDS011;11993;48.748;9.166;2024-03-06T08:05:11;16.35;;;8.73;;
23632;SDS011;11993;48.748;9.166;2024-03-06T08:07:40;12.80;;;8.27;;
23632;SDS011;11993;48.748;9.166;2024-03-06T08:10:07;25.60;;;13.45;;
23632;SDS011;11993;48.748;9.166;2024-03-06T08:12:42;16.88;;;9.65;;
23632;SDS011;11993;48.748;9.166;2024-03-06T08:15:10;17.42;;;8.05;;
23632;SDS011;11993;48.748;9.166;2024-03-06T08:17:41;12.98;;;7.85;;
23632;SDS011;11993;48.748;9.166;2024-03-06T08:20:08;13.75;;;7.80;;
23632;SDS011;11993;48.748;9.166;2024-03-06T08:22:35;9.63;;;5.75;;
23632;SDS011;11993;48.748;9.166;2024-03-06T08:25:05;11.25;;;7.45;;
23632;SDS011;11993;48.748;9.166;2024-03-06T08:27:32;9.70;;;5.95;;
23632;SDS011;11993;48.748;9.166;2024-03-06T08:29:58;8.20;;;5.22;;
23632;SDS011;11993;48.748;9.166;2024-03-06T08:32:24;10.82;;;5.43;;
23632;SDS011;11993;48.748;9.166;2024-03-06T08:34:49;9.20;;;5.72;;
23632;SDS011;11993;48.748;9.166;2024-03-06T08:37:15;11.82;;;6.25;;
23632;SDS011;11993;48.748;9.166;2024-03-06T08:39:40;12.50;;;6.20;;
23632;SDS011;11993;48.748;9.166;2024-03-06T08:42:06;10.20;;;6.07;;
23632;SDS011;11993;48.748;9.166;2024-03-06T08:44:31;10.07;;;6.20;;
23632;SDS011;11993;48.748;9.166;2024-03-06T08:46:57;9.45;;;5.72;;
23632;SDS011;11993;48.748;9.166;2024-03-06T08:49:22;12.60;;;5.60;;
23632;SDS011;11993;48.748;9.166;2024-03-06T08:51:48;8.00;;;5.55;;
23632;SDS011;11993;48.748;9.166;2024-03-06T08:54:14;9.52;;;5.90;;
23632;SDS011;11993;48.748;9.166;2024-03-06T08:56:43;10.52;;;6.35;;
23632;SDS011;11993;48.748;9.166;2024-03-06T08:59:09;12.68;;;6.03;;
23632;SDS011;11993;48.748;9.166;2024-03-06T09:01:34;14.57;;;7.25;;
23632;SDS011;11993;48.748;9.166;2024-03-06T09:04:00;10.10;;;6.22;;
23632;SDS011;11993;48.748;9.166;2024-03-06T09:06:25;10.05;;;7.20;;
23632;SDS011;11993;48.748;9.166;2024-03-06T09:08:52;9.88;;;7.57;;
23632;SDS011;11993;48.748;9.166;2024-03-06T09:11:17;13.02;;;6.22;;
23632;SDS011;11993;48.748;9.166;2024-03-06T09:13:43;10.35;;;6.95;;
23632;SDS011;11993;48.748;9.166;2024-03-06T09:16:08;10.35;;;6.85;;
23632;SDS011;11993;48.748;9.166;2024-03-06T09:18:34;9.38;;;7.18;;
23632;SDS011;11993;48.748;9.166;2024-03-06T09:20:59;11.80;;;7.93;;
23632;SDS011;11993;48.748;9.166;2024-03-06T09:23:25;9.85;;;7.00;;
23632;SDS011;11993;48.748;9.166;2024-03-06T09:25:51;12.63;;;8.02;;
23632;SDS011;11993;48.748;9.166;2024-03-06T09:28:16;14.25;;;7.30;;
23632;SDS011;11993;48.748;9.166;2024-03-06T09:30:42;13.27;;;8.10;;
23632;SDS011;11993;48.748;9.166;2024-03-06T09:33:07;12.00;;;6.90;;
23632;SDS011;11993;48.748;9.166;2024-03-06T09:35:33;14.77;;;7.97;;
23632;SDS011;11993;48.748;9.166;2024-03-06T09:37:59;14.20;;;8.45;;
23632;SDS011;11993;48.748;9.166;2024-03-06T09:40:26;16.02;;;7.93;;
23632;SDS011;11993;48.748;9.166;2024-03-06T09:42:51;9.18;;;6.90;;
23632;SDS011;11993;48.748;9.166;2024-03-06T09:45:18;14.98;;;7.28;;
23632;SDS011;11993;48.748;9.166;2024-03-06T09:47:47;11.82;;;7.60;;
23632;SDS011;11993;48.748;9.166;2024-03-06T09:50:16;10.90;;;7.10;;
23632;SDS011;11993;48.748;9.166;2024-03-06T09:52:47;12.40;;;8.95;;
23632;SDS011;11993;48.748;9.166;2024-03-06T09:55:15;16.13;;;9.10;;
23632;SDS011;11993;48.748;9.166;2024-03-06T09:57:43;13.23;;;7.80;;
23632;SDS011;11993;48.748;9.166;2024-03-06T10:00:09;13.13;;;7.65;;
23632;SDS011;11993;48.748;9.166;2024-03-06T10:02:48;14.20;;;8.73;;
23632;SDS011;11993;48.748;9.166;2024-03-06T10:05:21;17.30;;;9.63;;
23632;SDS011;11993;48.748;9.166;2024-03-06T10:07:47;10.68;;;8.18;;
23632;SDS011;11993;48.748;9.166;2024-03-06T10:10:14;12.52;;;8.75;;
23632;SDS011;11993;48.748;9.166;2024-03-06T10:12:41;14.75;;;9.75;;
23632;SDS011;11993;48.748;9.166;2024-03-06T10:15:07;16.27;;;9.85;;
23632;SDS011;11993;48.748;9.166;2024-03-06T10:17:37;19.02;;;11.10;;
23632;SDS011;11993;48.748;9.166;2024-03-06T10:20:24;12.50;;;8.88;;
23632;SDS011;11993;48.748;9.166;2024-03-06T10:22:49;16.90;;;11.38;;
23632;SDS011;11993;48.748;9.166;2024-03-06T10:25:18;16.13;;;11.38;;
23632;SDS011;11993;48.748;9.166;2024-03-06T10:27:46;14.73;;;10.77;;
23632;SDS011;11993;48.748;9.166;2024-03-06T10:30:21;20.40;;;13.15;;
23632;SDS011;11993;48.748;9.166;2024-03-06T10:32:47;14.60;;;10.90;;
23632;SDS011;11993;48.748;9.166;2024-03-06T10:35:19;14.50;;;10.48;;
23632;SDS011;11993;48.748;9.166;2024-03-06T10:37:46;15.82;;;11.07;;
23632;SDS011;11993;48.748;9.166;2024-03-06T10:40:14;19.10;;;12.52;;
23632;SDS011;11993;48.748;9.166;2024-03-06T10:42:42;18.00;;;11.25;;
23632;SDS011;11993;48.748;9.166;2024-03-06T10:45:10;17.08;;;12.07;;
23632;SDS011;11993;48.748;9.166;2024-03-06T10:47:39;20.27;;;12.68;;
23632;SDS011;11993;48.748;9.166;2024-03-06T10:50:06;20.48;;;13.10;;
23632;SDS011;11993;48.748;9.166;2024-03-06T10:52:36;21.60;;;14.52;;
23632;SDS011;11993;48.748;9.166;2024-03-06T10:55:05;17.15;;;13.18;;
23632;SDS011;11993;48.748;9.166;2024-03-06T10:57:31;20.80;;;15.70;;
23632;SDS011;11993;48.748;9.166;2024-03-06T10:59:58;18.75;;;14.98;;
23632;SDS011;11993;48.748;9.166;2024-03-06T11:02:25;20.30;;;13.23;;
23632;SDS011;11993;48.748;9.166;2024-03-06T11:04:53;20.92;;;15.07;;
23632;SDS011;11993;48.748;9.166;2024-03-06T11:07:19;21.60;;;15.18;;
23632;SDS011;11993;48.748;9.166;2024-03-06T11:09:45;21.95;;;16.60;;
23632;SDS011;11993;48.748;9.166;2024-03-06T11:12:32;19.95;;;15.00;;
23632;SDS011;11993;48.748;9.166;2024-03-06T11:15:15;21.88;;;16.00;;
23632;SDS011;11993;48.748;9.166;2024-03-06T11:17:42;25.75;;;17.25;;
23632;SDS011;11993;48.748;9.166;2024-03-06T11:20:08;25.05;;;17.00;;
23632;SDS011;11993;48.748;9.166;2024-03-06T11:28:18;22.75;;;17.42;;
23632;SDS011;11993;48.748;9.166;2024-03-06T11:30:48;21.15;;;16.35;;
23632;SDS011;11993;48.748;9.166;2024-03-06T11:33:20;29.38;;;20.77;;
23632;SDS011;11993;48.748;9.166;2024-03-06T11:41:25;29.13;;;22.40;;
23632;SDS011;11993;48.748;9.166;2024-03-06T11:43:52;28.20;;;21.73;;
23632;SDS011;11993;48.748;9.166;2024-03-06T11:46:19;26.83;;;19.08;;
23632;SDS011;11993;48.748;9.166;2024-03-06T11:48:52;26.83;;;19.13;;
23632;SDS011;11993;48.748;9.166;2024-03-06T11:51:22;27.73;;;19.50;;
23632;SDS011;11993;48.748;9.166;2024-03-06T11:53:51;28.40;;;20.13;;
23632;SDS011;11993;48.748;9.166;2024-03-06T11:56:20;24.92;;;20.45;;
23632;SDS011;11993;48.748;9.166;2024-03-06T11:58:46;24.25;;;18.67;;
23632;SDS011;11993;48.748;9.166;2024-03-06T12:01:13;24.70;;;18.38;;
23632;SDS011;11993;48.748;9.166;2024-03-06T12:03:39;28.10;;;21.10;;
23632;SDS011;11993;48.748;9.166;2024-03-06T12:06:06;23.58;;;18.20;;
23632;SDS011;11993;48.748;9.166;2024-03-06T12:08:33;27.60;;;20.60;;
23632;SDS011;11993;48.748;9.166;2024-03-06T12:11:02;26.85;;;20.25;;
23632;SDS011;11993;48.748;9.166;2024-03-06T12:13:30;27.95;;;20.95;;
23632;SDS011;11993;48.748;9.166;2024-03-06T12:15:56;29.20;;;18.80;;
23632;SDS011;11993;48.748;9.166;2024-03-06T12:18:22;28.70;;;21.55;;
23632;SDS011;11993;48.748;9.166;2024-03-06T12:20:49;25.77;;;19.98;;
23632;SDS011;11993;48.748;9.166;2024-03-06T12:23:22;31.65;;;23.65;;
23632;SDS011;11993;48.748;9.166;2024-03-06T12:25:50;33.67;;;24.55;;
23632;SDS011;11993;48.748;9.166;2024-03-06T12:28:16;32.35;;;20.48;;
23632;SDS011;11993;48.748;9.166;2024-03-06T12:30:49;27.05;;;20.67;;
23632;SDS011;11993;48.748;9.166;2024-03-06T12:33:17;37.08;;;26.48;;
23632;SDS011;11993;48.748;9.166;2024-03-06T12:35:44;83.35;;;48.65;;
23632;SDS011;11993;48.748;9.166;2024-03-06T12:38:14;34.03;;;23.40;;
23632;SDS011;11993;48.748;9.166;2024-03-06T12:40:41;30.88;;;23.38;;
23632;SDS011;11993;48.748;9.166;2024-03-06T12:43:08;32.65;;;25.05;;
23632;SDS011;11993;48.748;9.166;2024-03-06T12:45:34;36.35;;;23.70;;
23632;SDS011;11993;48.748;9.166;2024-03-06T12:48:01;27.38;;;21.88;;
23632;SDS011;11993;48.748;9.166;2024-03-06T12:50:28;29.65;;;21.58;;
23632;SDS011;11993;48.748;9.166;2024-03-06T12:52:54;31.75;;;23.40;;
23632;SDS011;11993;48.748;9.166;2024-03-06T12:55:19;32.25;;;25.08;;
23632;SDS011;11993;48.748;9.166;2024-03-06T12:57:45;33.67;;;24.73;;
23632;SDS011;11993;48.748;9.166;2024-03-06T13:00:11;29.45;;;21.60;;
23632;SDS011;11993;48.748;9.166;2024-03-06T13:02:43;30.80;;;22.75;;
23632;SDS011;11993;48.748;9.166;2024-03-06T13:05:10;30.67;;;24.23;;
23632;SDS011;11993;48.748;9.166;2024-03-06T13:07:36;27.98;;;22.35;;
23632;SDS011;11993;48.748;9.166;2024-03-06T13:10:02;34.17;;;24.58;;
23632;SDS011;11993;48.748;9.166;2024-03-06T13:12:28;33.75;;;25.90;;
23632;SDS011;11993;48.748;9.166;2024-03-06T13:14:54;32.17;;;23.30;;
23632;SDS011;11993;48.748;9.166;2024-03-06T13:17:20;37.97;;;26.10;;
23632;SDS011;11993;48.748;9.166;2024-03-06T13:19:46;33.67;;;25.42;;
23632;SDS011;11993;48.748;9.166;2024-03-06T13:22:11;34.95;;;25.27;;
23632;SDS011;11993;48.748;9.166;2024-03-06T13:24:37;31.60;;;24.92;;
23632;SDS011;11993;48.748;9.166;2024-03-06T13:27:03;30.35;;;21.77;;
23632;SDS011;11993;48.748;9.166;2024-03-06T13:29:29;30.25;;;23.42;;
23632;SDS011;11993;48.748;9.166;2024-03-06T13:31:55;29.02;;;22.60;;
23632;SDS011;11993;48.748;9.166;2024-03-06T13:34:20;34.60;;;23.58;;
23632;SDS011;11993;48.748;9.166;2024-03-06T13:36:46;35.00;;;24.52;;
23632;SDS011;11993;48.748;9.166;2024-03-06T13:39:12;34.10;;;21.50;;
23632;SDS011;11993;48.748;9.166;2024-03-06T13:41:37;30.15;;;22.42;;
23632;SDS011;11993;48.748;9.166;2024-03-06T13:44:03;32.60;;;21.83;;
23632;SDS011;11993;48.748;9.166;2024-03-06T13:46:29;25.67;;;19.75;;
23632;SDS011;11993;48.748;9.166;2024-03-06T13:48:55;30.90;;;19.98;;
23632;SDS011;11993;48.748;9.166;2024-03-06T13:51:20;28.00;;;21.60;;
23632;SDS011;11993;48.748;9.166;2024-03-06T13:53:46;32.85;;;22.75;;
23632;SDS011;11993;48.748;9.166;2024-03-06T13:56:12;32.47;;;23.67;;
23632;SDS011;11993;48.748;9.166;2024-03-06T13:58:38;27.80;;;21.30;;
23632;SDS011;11993;48.748;9.166;2024-03-06T14:01:04;25.85;;;19.90;;
23632;SDS011;11993;48.748;9.166;2024-03-06T14:03:30;31.58;;;23.17;;
23632;SDS011;11993;48.748;9.166;2024-03-06T14:05:58;30.20;;;19.55;;
23632;SDS011;11993;48.748;9.166;2024-03-06T14:08:24;32.28;;;23.02;;
23632;SDS011;11993;48.748;9.166;2024-03-06T14:10:51;24.95;;;19.83;;
23632;SDS011;11993;48.748;9.166;2024-03-06T14:13:16;29.23;;;20.83;;
23632;SDS011;11993;48.748;9.166;2024-03-06T14:15:42;29.85;;;21.98;;
23632;SDS011;11993;48.748;9.166;2024-03-06T14:18:08;22.90;;;18.80;;
23632;SDS011;11993;48.748;9.166;2024-03-06T14:20:33;26.17;;;21.38;;
23632;SDS011;11993;48.748;9.166;2024-03-06T14:22:59;27.80;;;20.00;;
23632;SDS011;11993;48.748;9.166;2024-03-06T14:25:25;27.48;;;21.17;;
23632;SDS011;11993;48.748;9.166;2024-03-06T14:27:51;26.00;;;20.70;;
23632;SDS011;11993;48.748;9.166;2024-03-06T14:30:16;31.45;;;20.42;;
23632;SDS011;11993;48.748;9.166;2024-03-06T14:32:44;24.33;;;19.70;;
23632;SDS011;11993;48.748;9.166;2024-03-06T14:35:09;33.47;;;24.30;;
23632;SDS011;11993;48.748;9.166;2024-03-06T14:37:35;24.92;;;20.35;;
23632;SDS011;11993;48.748;9.166;2024-03-06T14:40:01;24.88;;;20.25;;
23632;SDS011;11993;48.748;9.166;2024-03-06T14:42:26;26.50;;;20.10;;
23632;SDS011;11993;48.748;9.166;2024-03-06T14:44:52;29.33;;;21.10;;